createdAt,value
2023-04-18T00:01:19.053Z,96275.47
2023-04-18T00:03:47.818Z,96275.16
2023-04-18T00:06:15.244Z,96278.31
2023-04-18T00:08:42.538Z,96277.00
2023-04-18T00:11:09.843Z,96272.34
2023-04-18T00:13:38.857Z,96271.91
2023-04-18T00:16:08.504Z,96270.75
2023-04-18T00:18:37.527Z,96267.63
2023-04-18T00:21:05.280Z,96263.59
2023-04-18T00:23:34.684Z,96267.56
2023-04-18T00:26:02.660Z,96261.59
2023-04-18T00:28:30.097Z,96259.19
2023-04-18T00:30:57.499Z,96264.72
2023-04-18T00:33:24.819Z,96267.47
2023-04-18T00:35:52.720Z,96264.00
2023-04-18T00:38:20.169Z,96262.31
2023-04-18T00:40:48.721Z,96264.00
2023-04-18T00:43:17.338Z,96257.91
2023-04-18T00:45:44.897Z,96261.47
2023-04-18T00:48:12.390Z,96261.47
2023-04-18T00:50:42.043Z,96254.53
2023-04-18T00:53:11.465Z,96258.00
2023-04-18T00:55:39.280Z,96260.66
2023-04-18T00:58:06.759Z,96254.44
2023-04-18T01:00:34.589Z,96263.28
2023-04-18T01:03:02.045Z,96268.78
2023-04-18T01:05:29.537Z,96269.88
2023-04-18T01:08:01.450Z,96272.63
2023-04-18T01:10:31.217Z,96271.91
2023-04-18T01:13:15.307Z,96275.50
2023-04-18T01:15:44.389Z,96265.81
2023-04-18T01:18:13.539Z,96271.06
2023-04-18T01:20:44.223Z,96263.91
2023-04-18T01:23:11.619Z,96263.66
2023-04-18T01:25:39.557Z,96260.03
2023-04-18T01:28:07.256Z,96258.97
2023-04-18T01:30:35.047Z,96259.94
2023-04-18T01:33:04.722Z,96258.25
2023-04-18T01:35:33.845Z,96257.28
2023-04-18T01:38:01.541Z,96263.28
2023-04-18T01:40:30.511Z,96259.56
2023-04-18T01:42:57.863Z,96254.31
2023-04-18T01:45:25.450Z,96256.22
2023-04-18T01:47:52.835Z,96253.97
2023-04-18T01:50:20.308Z,96248.00
2023-04-18T01:52:48.311Z,96253.47
2023-04-18T01:55:16.737Z,96258.88
2023-04-18T01:57:44.423Z,96259.03
2023-04-18T02:00:12.447Z,96244.88
2023-04-18T02:02:43.142Z,96248.22
2023-04-18T02:05:11.082Z,96256.72
2023-04-18T02:07:41.499Z,96250.50
2023-04-18T02:10:10.854Z,96252.97
2023-04-18T02:12:38.206Z,96258.25
2023-04-18T02:15:06.130Z,96248.44
2023-04-18T02:17:36.694Z,96256.94
2023-04-18T02:20:04.708Z,96252.41
2023-04-18T02:22:32.171Z,96258.34
2023-04-18T02:25:01.048Z,96260.84
2023-04-18T02:27:28.539Z,96253.69
2023-04-18T02:29:57.903Z,96256.19
2023-04-18T02:32:25.438Z,96253.41
2023-04-18T02:34:52.752Z,96258.56
2023-04-18T02:37:20.081Z,96262.03
2023-04-18T02:39:47.399Z,96260.84
2023-04-18T02:42:14.773Z,96258.19
2023-04-18T02:44:42.170Z,96260.97
2023-04-18T02:47:10.189Z,96260.97
2023-04-18T02:49:41.308Z,96267.91
2023-04-18T02:52:08.779Z,96262.88
2023-04-18T02:54:36.181Z,96267.28
2023-04-18T02:57:11.400Z,96257.88
2023-04-18T02:59:47.816Z,96259.66
2023-04-18T03:02:26.940Z,96260.03
2023-04-18T03:04:59.218Z,96263.03
2023-04-18T03:07:27.389Z,96255.63
2023-04-18T03:09:54.981Z,96262.22
2023-04-18T03:12:26.816Z,96263.56
2023-04-18T03:14:54.197Z,96265.84
2023-04-18T03:17:22.185Z,96258.31
2023-04-18T03:19:50.270Z,96258.09
2023-04-18T03:22:20.218Z,96265.88
2023-04-18T03:24:55.404Z,96249.69
2023-04-18T03:27:32.439Z,96256.28
2023-04-18T03:30:00.499Z,96247.91
2023-04-18T03:32:28.105Z,96247.31
2023-04-18T03:34:55.372Z,96247.56
2023-04-18T03:37:22.849Z,96255.44
2023-04-18T03:39:54.960Z,96254.50
2023-04-18T03:42:25.286Z,96255.22
2023-04-18T03:44:52.588Z,96255.91
2023-04-18T03:47:20.055Z,96254.00
2023-04-18T03:49:51.476Z,96253.06
2023-04-18T03:52:20.612Z,96247.56
2023-04-18T03:54:47.873Z,96250.19
2023-04-18T03:57:17.299Z,96257.97
2023-04-18T03:59:46.069Z,96260.44
2023-04-18T04:02:15.082Z,96262.13
2023-04-18T04:04:43.244Z,96255.19
2023-04-18T04:07:12.446Z,96256.16
2023-04-18T04:09:39.740Z,96263.22
2023-04-18T04:12:07.193Z,96259.63
2023-04-18T04:14:34.895Z,96258.78
2023-04-18T04:17:02.832Z,96257.97
2023-04-18T04:19:31.292Z,96258.09
2023-04-18T04:22:16.019Z,96264.28
2023-04-18T04:24:43.414Z,96260.00
2023-04-18T04:27:14.128Z,96266.31
2023-04-18T04:29:44.088Z,96263.56
2023-04-18T04:32:13.355Z,96260.09
2023-04-18T04:34:42.013Z,96269.56
2023-04-18T04:37:14.384Z,96271.22
2023-04-18T04:39:57.345Z,96272.66
2023-04-18T04:42:56.686Z,96275.88
2023-04-18T04:45:30.588Z,96265.25
2023-04-18T04:47:57.936Z,96272.03
2023-04-18T04:50:25.941Z,96267.41
2023-04-18T04:52:53.225Z,96272.31
2023-04-18T04:55:20.667Z,96281.53
2023-04-18T04:57:48.210Z,96280.44
2023-04-18T05:00:30.292Z,96276.63
2023-04-18T05:02:58.007Z,96274.44
2023-04-18T05:05:27.126Z,96267.88
2023-04-18T05:07:55.043Z,96280.75
2023-04-18T05:10:22.414Z,96278.63
2023-04-18T05:12:49.785Z,96268.31
2023-04-18T05:15:17.246Z,96274.88
2023-04-18T05:17:44.750Z,96277.59
2023-04-18T05:20:12.345Z,96277.69
2023-04-18T05:22:40.089Z,96282.91
2023-04-18T05:25:08.571Z,96283.06
2023-04-18T05:27:35.869Z,96274.97
2023-04-18T05:30:03.290Z,96274.16
2023-04-18T05:32:30.720Z,96282.22
2023-04-18T05:34:58.028Z,96283.13
2023-04-18T05:37:25.741Z,96280.59
2023-04-18T05:39:53.039Z,96282.88
2023-04-18T05:42:20.387Z,96282.41
2023-04-18T05:44:47.620Z,96284.00
2023-04-18T05:47:14.954Z,96286.19
2023-04-18T05:49:42.280Z,96291.78
2023-04-18T05:52:09.724Z,96292.03
2023-04-18T05:54:36.965Z,96284.91
2023-04-18T05:57:04.769Z,96286.94
2023-04-18T05:59:32.208Z,96284.25
2023-04-18T06:01:59.669Z,96290.34
2023-04-18T06:04:27.164Z,96294.81
2023-04-18T06:06:54.545Z,96293.09
2023-04-18T06:09:21.886Z,96290.91
2023-04-18T06:11:49.111Z,96294.72
2023-04-18T06:14:16.529Z,96293.59
2023-04-18T06:16:45.235Z,96299.19
2023-04-18T06:19:12.448Z,96298.44
2023-04-18T06:21:42.359Z,96301.63
2023-04-18T06:24:09.995Z,96300.47
2023-04-18T06:26:37.474Z,96305.75
2023-04-18T06:29:04.751Z,96304.13
2023-04-18T06:31:32.092Z,96314.81
2023-04-18T06:33:59.308Z,96320.69
2023-04-18T06:36:27.979Z,96309.09
2023-04-18T06:38:55.480Z,96308.91
2023-04-18T06:41:23.266Z,96320.63
2023-04-18T06:44:02.595Z,96314.13
2023-04-18T06:46:31.517Z,96310.84
2023-04-18T06:48:59.135Z,96306.97
2023-04-18T06:51:26.595Z,96310.28
2023-04-18T06:53:54.120Z,96314.31
2023-04-18T06:56:21.550Z,96317.78
2023-04-18T06:58:49.643Z,96316.66
2023-04-18T07:01:17.067Z,96304.72
2023-04-18T07:03:44.585Z,96308.16
2023-04-18T07:06:12.113Z,96316.97
2023-04-18T07:08:39.496Z,96318.31
2023-04-18T07:11:07.202Z,96323.78
2023-04-18T07:13:34.421Z,96316.81
2023-04-18T07:16:01.928Z,96312.47
2023-04-18T07:18:37.161Z,96324.41
2023-04-18T07:21:08.090Z,96314.44
2023-04-18T07:23:36.052Z,96316.00
2023-04-18T07:26:03.770Z,96323.34
2023-04-18T07:28:32.339Z,96326.00
2023-04-18T07:31:00.000Z,96327.53
2023-04-18T07:33:27.378Z,96328.97
2023-04-18T07:35:54.670Z,96327.16
2023-04-18T07:38:21.902Z,96329.00
2023-04-18T07:40:59.834Z,96324.28
2023-04-18T07:43:27.256Z,96336.25
2023-04-18T07:45:54.921Z,96352.81
2023-04-18T07:48:31.190Z,96335.91
2023-04-18T07:50:58.868Z,96340.94
2023-04-18T07:53:26.368Z,96336.94
2023-04-18T07:55:55.009Z,96344.38
2023-04-18T07:58:22.451Z,96335.94
2023-04-18T08:00:49.745Z,96338.88
2023-04-18T08:03:17.241Z,96342.31
2023-04-18T08:05:44.625Z,96352.88
2023-04-18T08:08:12.709Z,96351.47
2023-04-18T08:10:40.126Z,96348.94
2023-04-18T08:13:07.753Z,96355.06
2023-04-18T08:15:35.016Z,96340.13
2023-04-18T08:18:02.610Z,96342.75
2023-04-18T08:20:30.101Z,96345.47
2023-04-18T08:23:07.472Z,96347.72
2023-04-18T08:25:36.840Z,96354.78
2023-04-18T08:28:04.751Z,96360.63
2023-04-18T08:30:32.276Z,96351.13
2023-04-18T08:33:00.922Z,96357.22
2023-04-18T08:35:28.506Z,96349.31
2023-04-18T08:37:55.979Z,96350.75
2023-04-18T08:40:23.525Z,96360.25
2023-04-18T08:42:53.287Z,96352.72
2023-04-18T08:45:21.187Z,96360.31
2023-04-18T08:47:48.641Z,96368.50
2023-04-18T08:50:17.068Z,96366.88
2023-04-18T08:52:50.452Z,96362.81
2023-04-18T08:55:19.369Z,96372.53
2023-04-18T08:57:47.873Z,96367.66
2023-04-18T09:00:18.335Z,96376.78
2023-04-18T09:02:47.581Z,96371.06
2023-04-18T09:05:19.258Z,96375.78
2023-04-18T09:07:48.182Z,96370.53
2023-04-18T09:10:33.594Z,96371.34
2023-04-18T09:13:05.976Z,96374.22
2023-04-18T09:15:33.346Z,96379.31
2023-04-18T09:18:03.465Z,96375.75
2023-04-18T09:20:38.311Z,96382.94
2023-04-18T09:23:16.578Z,96372.50
2023-04-18T09:25:48.992Z,96374.47
2023-04-18T09:28:29.256Z,96388.88
2023-04-18T09:30:57.505Z,96379.41
2023-04-18T09:33:35.018Z,96385.19
2023-04-18T09:36:21.582Z,96377.16
2023-04-18T09:38:50.893Z,96381.88
2023-04-18T09:41:21.416Z,96375.31
2023-04-18T09:43:49.262Z,96378.28
2023-04-18T09:46:18.187Z,96382.88
2023-04-18T09:48:45.918Z,96373.31
2023-04-18T09:51:17.019Z,96383.34
2023-04-18T09:53:45.340Z,96378.59
2023-04-18T09:56:23.609Z,96385.13
2023-04-18T09:58:57.465Z,96374.19
2023-04-18T10:01:29.533Z,96379.41
2023-04-18T10:03:58.123Z,96390.69
2023-04-18T10:06:27.732Z,96381.09
2023-04-18T10:08:56.304Z,96377.75
2023-04-18T10:11:24.800Z,96370.41
2023-04-18T10:13:57.921Z,96374.13
2023-04-18T10:16:26.459Z,96371.25
2023-04-18T10:18:53.854Z,96373.75
2023-04-18T10:21:22.302Z,96369.97
2023-04-18T10:23:50.657Z,96369.25
2023-04-18T10:26:18.044Z,96366.13
2023-04-18T10:28:53.849Z,96373.59
2023-04-18T10:31:23.043Z,96363.44
2023-04-18T10:34:18.479Z,96372.78
2023-04-18T10:37:04.803Z,96361.78
2023-04-18T10:39:51.360Z,96372.91
2023-04-18T10:42:18.763Z,96372.53
2023-04-18T10:45:22.419Z,96358.09
2023-04-18T10:47:50.293Z,96371.59
2023-04-18T10:50:18.103Z,96368.28
2023-04-18T10:52:45.495Z,96365.47
2023-04-18T10:55:24.732Z,96362.78
2023-04-18T10:57:52.197Z,96352.97
2023-04-18T11:00:22.041Z,96358.94
2023-04-18T11:03:00.809Z,96353.72
2023-04-18T11:05:29.576Z,96347.84
2023-04-18T11:07:57.019Z,96342.03
2023-04-18T11:10:27.068Z,96344.94
2023-04-18T11:12:55.612Z,96346.63
2023-04-18T11:15:25.045Z,96352.78
2023-04-18T11:18:10.519Z,96357.13
2023-04-18T11:20:47.792Z,96342.97
2023-04-18T11:23:21.778Z,96343.38
2023-04-18T11:25:54.760Z,96344.16
2023-04-18T11:28:22.913Z,96337.13
2023-04-18T11:30:50.219Z,96346.72
2023-04-18T11:33:17.598Z,96354.72
2023-04-18T11:35:46.503Z,96352.75
2023-04-18T11:38:16.573Z,96354.00
2023-04-18T11:40:51.322Z,96349.34
2023-04-18T11:43:25.981Z,96354.66
2023-04-18T11:45:57.104Z,96359.88
2023-04-18T11:48:25.266Z,96356.28
2023-04-18T11:50:52.489Z,96356.69
2023-04-18T11:53:37.222Z,96356.28
2023-04-18T11:56:05.379Z,96360.31
2023-04-18T11:58:37.045Z,96347.53
2023-04-18T12:01:36.849Z,96340.44
2023-04-18T12:04:06.241Z,96342.88
2023-04-18T12:06:50.791Z,96348.28
2023-04-18T12:09:19.352Z,96353.78
2023-04-18T12:12:06.971Z,96352.44
2023-04-18T12:14:36.340Z,96349.63
2023-04-18T12:17:04.246Z,96359.28
2023-04-18T12:19:33.165Z,96352.66
2023-04-18T12:22:03.526Z,96355.13
2023-04-18T12:24:32.732Z,96363.47
2023-04-18T12:27:00.469Z,96352.28
2023-04-18T12:29:29.493Z,96352.13
2023-04-18T12:31:57.106Z,96355.94
2023-04-18T12:34:24.437Z,96369.41
2023-04-18T12:36:52.732Z,96365.66
2023-04-18T12:39:20.106Z,96353.44
2023-04-18T12:41:49.668Z,96364.56
2023-04-18T12:44:17.686Z,96358.22
2023-04-18T12:46:48.476Z,96355.41
2023-04-18T12:49:16.187Z,96358.13
2023-04-18T12:51:44.005Z,96347.63
2023-04-18T12:54:11.577Z,96357.88
2023-04-18T12:56:39.037Z,96359.84
2023-04-18T12:59:06.282Z,96357.09
2023-04-18T13:01:33.618Z,96349.94
2023-04-18T13:04:11.832Z,96356.84
2023-04-18T13:06:40.834Z,96350.69
2023-04-18T13:09:08.516Z,96352.66
2023-04-18T13:11:35.892Z,96366.06
2023-04-18T13:14:03.127Z,96354.03
2023-04-18T13:16:30.440Z,96361.38
2023-04-18T13:19:00.772Z,96357.28
2023-04-18T13:21:28.556Z,96357.47
2023-04-18T13:23:55.897Z,96362.75
2023-04-18T13:26:23.186Z,96361.81
2023-04-18T13:28:50.614Z,96355.03
2023-04-18T13:31:17.861Z,96349.72
2023-04-18T13:33:45.220Z,96353.59
2023-04-18T13:36:12.573Z,96352.47
2023-04-18T13:38:40.250Z,96351.47
2023-04-18T13:41:12.899Z,96360.13
2023-04-18T13:43:41.179Z,96347.78
2023-04-18T13:46:08.503Z,96354.19
2023-04-18T13:48:35.947Z,96372.53
2023-04-18T13:51:03.534Z,96360.13
2023-04-18T13:53:31.250Z,96369.22
2023-04-18T13:55:58.973Z,96365.78
2023-04-18T13:58:26.310Z,96364.56
2023-04-18T14:00:54.289Z,96365.50
2023-04-18T14:03:21.666Z,96365.66
2023-04-18T14:05:48.974Z,96359.81
2023-04-18T14:08:16.266Z,96369.72
2023-04-18T14:10:43.579Z,96373.47
2023-04-18T14:13:10.968Z,96368.06
2023-04-18T14:15:38.230Z,96361.53
2023-04-18T14:18:05.648Z,96358.50
2023-04-18T14:20:35.175Z,96374.75
2023-04-18T14:23:02.442Z,96368.25
2023-04-18T14:25:30.509Z,96365.44
2023-04-18T14:28:09.939Z,96371.50
2023-04-18T14:30:38.627Z,96381.19
2023-04-18T14:33:06.505Z,96365.56
2023-04-18T14:35:33.951Z,96373.13
2023-04-18T14:38:01.350Z,96369.78
2023-04-18T14:40:29.512Z,96375.81
2023-04-18T14:42:58.260Z,96384.47
2023-04-18T14:45:25.557Z,96380.13
2023-04-18T14:47:54.046Z,96370.81
2023-04-18T14:50:21.542Z,96388.81
2023-04-18T14:52:48.882Z,96379.72
2023-04-18T14:55:16.278Z,96386.59
2023-04-18T14:57:43.606Z,96386.22
2023-04-18T15:00:12.196Z,96387.63
2023-04-18T15:02:40.061Z,96397.81
2023-04-18T15:05:08.871Z,96384.56
2023-04-18T15:07:38.369Z,96393.66
2023-04-18T15:10:06.409Z,96387.94
2023-04-18T15:12:33.757Z,96393.38
2023-04-18T15:15:01.037Z,96398.97
2023-04-18T15:17:28.775Z,96397.16
2023-04-18T15:19:55.979Z,96395.34
2023-04-18T15:22:23.436Z,96400.47
2023-04-18T15:24:51.015Z,96395.88
2023-04-18T15:27:18.260Z,96396.44
2023-04-18T15:29:45.822Z,96399.94
2023-04-18T15:32:14.882Z,96400.44
2023-04-18T15:34:42.167Z,96398.78
2023-04-18T15:37:09.899Z,96395.16
2023-04-18T15:39:37.473Z,96408.25
2023-04-18T15:42:04.892Z,96410.94
2023-04-18T15:44:32.199Z,96398.25
2023-04-18T15:47:01.968Z,96406.22
2023-04-18T15:49:29.271Z,96406.34
2023-04-18T15:51:57.243Z,96403.69
2023-04-18T15:54:24.505Z,96413.59
2023-04-18T15:56:52.023Z,96405.25
2023-04-18T15:59:19.389Z,96407.34
2023-04-18T16:01:46.672Z,96411.00
2023-04-18T16:04:14.315Z,96409.31
2023-04-18T16:06:42.148Z,96412.81
2023-04-18T16:09:10.244Z,96407.34
2023-04-18T16:11:37.511Z,96399.81
2023-04-18T16:14:04.816Z,96404.69
2023-04-18T16:16:32.362Z,96405.09
2023-04-18T16:18:59.701Z,96401.72
2023-04-18T16:21:28.622Z,96400.19
2023-04-18T16:23:56.005Z,96401.16
2023-04-18T16:26:25.475Z,96403.94
2023-04-18T16:28:52.749Z,96402.50
2023-04-18T16:31:20.095Z,96403.88
2023-04-18T16:33:47.441Z,96404.59
2023-04-18T16:36:14.803Z,96407.91
2023-04-18T16:38:42.074Z,96401.75
2023-04-18T16:41:09.678Z,96407.75
2023-04-18T16:43:38.296Z,96402.19
2023-04-18T16:46:06.057Z,96410.97
2023-04-18T16:48:33.543Z,96414.47
2023-04-18T16:51:00.881Z,96413.91
2023-04-18T16:53:28.275Z,96413.78
2023-04-18T16:55:55.613Z,96412.44
2023-04-18T16:58:23.865Z,96420.78
2023-04-18T17:00:51.448Z,96415.09
2023-04-18T17:03:18.866Z,96415.00
2023-04-18T17:05:46.889Z,96417.66
2023-04-18T17:08:14.089Z,96411.06
2023-04-18T17:10:41.453Z,96417.63
2023-04-18T17:13:08.686Z,96414.16
2023-04-18T17:15:36.886Z,96416.09
2023-04-18T17:18:04.456Z,96420.56
2023-04-18T17:20:31.805Z,96417.06
2023-04-18T17:22:59.201Z,96429.34
2023-04-18T17:25:26.504Z,96425.16
2023-04-18T17:27:53.804Z,96427.13
2023-04-18T17:30:21.260Z,96428.63
2023-04-18T17:32:49.550Z,96422.50
2023-04-18T17:35:17.133Z,96428.50
2023-04-18T17:37:44.480Z,96424.47
2023-04-18T17:40:12.357Z,96423.34
2023-04-18T17:42:39.870Z,96425.44
2023-04-18T17:45:08.888Z,96429.78
2023-04-18T17:47:37.033Z,96430.75
2023-04-18T17:50:05.090Z,96424.06
2023-04-18T17:52:32.823Z,96433.41
2023-04-18T17:55:02.078Z,96438.00
2023-04-18T17:57:31.073Z,96429.66
2023-04-18T17:59:58.295Z,96433.28
2023-04-18T18:02:25.756Z,96429.09
2023-04-18T18:04:53.254Z,96437.47
2023-04-18T18:07:20.586Z,96437.59
2023-04-18T18:09:47.818Z,96441.09
2023-04-18T18:12:15.123Z,96443.88
2023-04-18T18:14:42.409Z,96447.50
2023-04-18T18:17:09.721Z,96439.56
2023-04-18T18:19:37.115Z,96445.94
2023-04-18T18:22:04.512Z,96446.78
2023-04-18T18:24:31.819Z,96451.25
2023-04-18T18:26:59.359Z,96452.25
2023-04-18T18:29:26.657Z,96455.88
2023-04-18T18:31:53.960Z,96453.22
2023-04-18T18:34:21.940Z,96462.13
2023-04-18T18:36:49.258Z,96461.69
2023-04-18T18:39:16.914Z,96457.53
2023-04-18T18:41:44.369Z,96459.34
2023-04-18T18:44:12.560Z,96468.53
2023-04-18T18:46:41.102Z,96479.66
2023-04-18T18:49:10.276Z,96476.75
2023-04-18T18:51:37.581Z,96472.97
2023-04-18T18:54:04.823Z,96471.69
2023-04-18T18:56:32.138Z,96472.81
2023-04-18T18:58:59.379Z,96480.91
2023-04-18T19:01:26.702Z,96483.94
2023-04-18T19:03:54.131Z,96486.88
2023-04-18T19:06:21.501Z,96494.22
2023-04-18T19:08:48.675Z,96490.88
2023-04-18T19:11:16.673Z,96492.97
2023-04-18T19:13:43.934Z,96489.63
2023-04-18T19:16:11.466Z,96509.22
2023-04-18T19:18:39.052Z,96500.59
2023-04-18T19:21:06.340Z,96508.09
2023-04-18T19:23:33.583Z,96506.69
2023-04-18T19:26:00.860Z,96513.09
2023-04-18T19:28:28.191Z,96510.56
2023-04-18T19:30:55.589Z,96513.50
2023-04-18T19:33:25.370Z,96511.94
2023-04-18T19:35:52.611Z,96506.78
2023-04-18T19:38:20.182Z,96508.72
2023-04-18T19:40:47.604Z,96500.09
2023-04-18T19:43:14.983Z,96501.91
2023-04-18T19:45:42.354Z,96510.22
2023-04-18T19:48:09.699Z,96513.81
2023-04-18T19:50:40.792Z,96506.56
2023-04-18T19:53:08.570Z,96511.53
2023-04-18T19:55:35.909Z,96505.00
2023-04-18T19:58:03.364Z,96508.97
2023-04-18T20:00:30.821Z,96512.56
2023-04-18T20:02:59.657Z,96505.66
2023-04-18T20:05:27.071Z,96505.78
2023-04-18T20:07:54.415Z,96510.09
2023-04-18T20:10:22.584Z,96513.94
2023-04-18T20:12:50.255Z,96510.34
2023-04-18T20:15:17.697Z,96514.78
2023-04-18T20:17:45.093Z,96507.94
2023-04-18T20:20:13.425Z,96505.44
2023-04-18T20:22:42.172Z,96510.88
2023-04-18T20:25:09.465Z,96509.19
2023-04-18T20:27:36.756Z,96511.00
2023-04-18T20:30:04.931Z,96511.84
2023-04-18T20:32:32.606Z,96507.28
2023-04-18T20:35:00.362Z,96505.19
2023-04-18T20:37:28.060Z,96505.06
2023-04-18T20:39:56.216Z,96509.25
2023-04-18T20:42:24.028Z,96508.28
2023-04-18T20:44:51.690Z,96512.44
2023-04-18T20:47:19.073Z,96522.06
2023-04-18T20:49:46.622Z,96515.09
2023-04-18T20:52:14.738Z,96512.31
2023-04-18T20:54:42.165Z,96515.81
2023-04-18T20:57:09.574Z,96505.25
2023-04-18T20:59:39.935Z,96513.03
2023-04-18T21:02:08.531Z,96510.28
2023-04-18T21:04:36.746Z,96508.31
2023-04-18T21:07:04.244Z,96505.66
2023-04-18T21:09:36.742Z,96510.00
2023-04-18T21:12:04.551Z,96515.16
2023-04-18T21:14:31.849Z,96512.63
2023-04-18T21:16:59.357Z,96509.16
2023-04-18T21:19:26.710Z,96508.19
2023-04-18T21:21:54.050Z,96510.84
2023-04-18T21:24:21.311Z,96510.72
2023-04-18T21:26:48.572Z,96511.53
2023-04-18T21:29:16.110Z,96507.09
2023-04-18T21:31:43.513Z,96513.94
2023-04-18T21:34:11.621Z,96517.25
2023-04-18T21:36:40.454Z,96516.56
2023-04-18T21:39:08.679Z,96521.69
2023-04-18T21:41:36.170Z,96513.66
2023-04-18T21:44:03.770Z,96514.50
2023-04-18T21:46:31.030Z,96511.84
2023-04-18T21:48:58.285Z,96507.53
2023-04-18T21:51:25.599Z,96511.00
2023-04-18T21:53:53.187Z,96513.66
2023-04-18T21:56:20.473Z,96506.69
2023-04-18T21:58:48.089Z,96510.44
2023-04-18T22:01:15.331Z,96510.84
2023-04-18T22:03:42.884Z,96514.31
2023-04-18T22:06:10.748Z,96512.50
2023-04-18T22:08:38.040Z,96508.19
2023-04-18T22:11:05.529Z,96509.16
2023-04-18T22:13:36.021Z,96504.84
2023-04-18T22:16:04.235Z,96506.06
2023-04-18T22:18:35.252Z,96501.88
2023-04-18T22:21:04.182Z,96504.53
2023-04-18T22:23:31.812Z,96508.28
2023-04-18T22:25:58.968Z,96500.50
2023-04-18T22:28:28.351Z,96494.50
2023-04-18T22:30:55.718Z,96502.41
2023-04-18T22:33:23.253Z,96497.50
2023-04-18T22:35:50.640Z,96496.69
2023-04-18T22:38:17.959Z,96493.34
2023-04-18T22:40:45.142Z,96490.69
2023-04-18T22:43:12.420Z,96494.31
2023-04-18T22:45:39.766Z,96499.59
2023-04-18T22:48:11.819Z,96487.22
2023-04-18T22:50:42.985Z,96488.19
2023-04-18T22:53:15.472Z,96491.88
2023-04-18T22:55:44.570Z,96496.47
2023-04-18T22:58:12.472Z,96483.66
2023-04-18T23:00:39.905Z,96496.84
2023-04-18T23:03:07.351Z,96494.22
2023-04-18T23:05:35.044Z,96496.97
2023-04-18T23:08:02.323Z,96496.13
2023-04-18T23:10:29.715Z,96492.81
2023-04-18T23:12:57.006Z,96494.75
2023-04-18T23:15:24.497Z,96491.25
2023-04-18T23:17:53.379Z,96491.97
2023-04-18T23:20:21.729Z,96485.69
2023-04-18T23:22:52.072Z,96491.97
2023-04-18T23:25:22.468Z,96486.81
2023-04-18T23:27:49.742Z,96487.91
2023-04-18T23:30:17.556Z,96489.72
2023-04-18T23:32:45.419Z,96490.53
2023-04-18T23:35:12.770Z,96483.72
2023-04-18T23:37:40.173Z,96478.31
2023-04-18T23:40:08.248Z,96478.31
2023-04-18T23:42:36.173Z,96470.50
2023-04-18T23:45:04.398Z,96481.06
2023-04-18T23:47:31.984Z,96472.19
2023-04-18T23:49:59.309Z,96470.50
2023-04-18T23:52:26.602Z,96470.50
2023-04-18T23:54:53.840Z,96473.03
2023-04-18T23:57:21.048Z,96465.22
2023-04-18T23:59:48.291Z,96470.50
